createdAt,value
2022-11-22T00:00:20.071Z,51.30
2022-11-22T00:02:47.220Z,53.50
2022-11-22T00:05:14.088Z,51.05
2022-11-22T00:07:40.752Z,48.90
2022-11-22T00:10:09.422Z,51.22
2022-11-22T00:12:36.467Z,41.80
2022-11-22T00:15:04.504Z,42.75
2022-11-22T00:17:34.828Z,34.72
2022-11-22T00:20:01.552Z,44.17
2022-11-22T00:22:28.229Z,34.03
2022-11-22T00:24:54.877Z,40.50
2022-11-22T00:27:21.523Z,33.60
2022-11-22T00:29:48.133Z,34.50
2022-11-22T00:32:15.151Z,33.85
2022-11-22T00:34:41.894Z,34.67
2022-11-22T00:37:08.761Z,35.10
2022-11-22T00:39:35.391Z,35.58
2022-11-22T00:42:02.023Z,31.52
2022-11-22T00:44:28.702Z,41.40
2022-11-22T00:46:55.501Z,31.02
2022-11-22T00:49:22.122Z,30.65
2022-11-22T00:51:48.747Z,30.23
2022-11-22T00:54:15.510Z,32.63
2022-11-22T00:56:42.147Z,33.38
2022-11-22T00:59:08.844Z,33.38
2022-11-22T01:01:35.555Z,36.33
2022-11-22T01:04:02.264Z,27.50
2022-11-22T01:06:28.889Z,33.05
2022-11-22T01:08:55.611Z,34.63
2022-11-22T01:11:22.340Z,36.53
2022-11-22T01:13:48.979Z,36.22
2022-11-22T01:16:16.426Z,39.50
2022-11-22T01:18:43.614Z,42.58
2022-11-22T01:21:10.552Z,38.75
2022-11-22T01:23:37.693Z,39.28
2022-11-22T01:26:08.818Z,39.75
2022-11-22T01:28:36.569Z,37.15
2022-11-22T01:31:03.382Z,44.53
2022-11-22T01:33:30.291Z,41.83
2022-11-22T01:35:58.076Z,40.30
2022-11-22T01:38:25.263Z,41.38
2022-11-22T01:40:52.750Z,39.65
2022-11-22T01:43:22.462Z,36.22
2022-11-22T01:45:52.198Z,36.95
2022-11-22T01:48:22.550Z,42.20
2022-11-22T01:50:53.498Z,37.33
2022-11-22T01:53:25.729Z,36.28
2022-11-22T01:55:53.883Z,40.90
2022-11-22T01:58:22.218Z,42.40
2022-11-22T02:00:51.099Z,30.08
2022-11-22T02:03:19.146Z,41.25
2022-11-22T02:05:47.969Z,35.67
2022-11-22T02:08:30.343Z,31.63
2022-11-22T02:11:01.594Z,29.98
2022-11-22T02:13:29.751Z,29.45
2022-11-22T02:15:56.633Z,25.98
2022-11-22T02:18:23.445Z,32.42
2022-11-22T02:20:50.190Z,31.52
2022-11-22T02:23:23.973Z,36.17
2022-11-22T02:25:55.851Z,32.38
2022-11-22T02:28:22.977Z,30.17
2022-11-22T02:30:49.694Z,35.22
2022-11-22T02:33:16.676Z,29.88
2022-11-22T02:35:44.888Z,34.00
2022-11-22T02:38:19.198Z,27.77
2022-11-22T02:40:58.670Z,33.00
2022-11-22T02:43:32.910Z,32.08
2022-11-22T02:46:07.858Z,32.28
2022-11-22T02:51:01.644Z,28.15
2022-11-22T02:53:30.598Z,31.80
2022-11-22T02:55:57.506Z,36.88
2022-11-22T02:58:24.111Z,28.60
2022-11-22T03:00:50.868Z,35.10
2022-11-22T03:03:17.677Z,29.17
2022-11-22T03:05:44.668Z,32.88
2022-11-22T03:08:11.307Z,29.48
2022-11-22T03:10:38.058Z,32.90
2022-11-22T03:13:04.694Z,31.42
2022-11-22T03:15:31.339Z,36.78
2022-11-22T03:18:02.990Z,30.92
2022-11-22T03:20:30.268Z,29.80
2022-11-22T03:22:57.007Z,33.25
2022-11-22T03:25:23.961Z,31.00
2022-11-22T03:27:50.607Z,27.90
2022-11-22T03:30:17.409Z,34.15
2022-11-22T03:32:44.096Z,30.27
2022-11-22T03:35:10.847Z,33.65
2022-11-22T03:37:37.693Z,30.05
2022-11-22T03:40:05.643Z,30.98
2022-11-22T03:42:32.398Z,29.92
2022-11-22T03:44:59.212Z,28.98
2022-11-22T03:47:25.839Z,28.55
2022-11-22T03:49:52.500Z,32.33
2022-11-22T03:52:19.094Z,32.65
2022-11-22T03:54:45.771Z,33.17
2022-11-22T03:57:12.427Z,36.47
2022-11-22T03:59:39.098Z,29.85
2022-11-22T04:02:05.892Z,31.60
2022-11-22T04:04:32.569Z,36.35
2022-11-22T04:06:59.754Z,37.08
2022-11-22T04:09:26.444Z,36.17
2022-11-22T04:11:53.142Z,35.22
2022-11-22T04:14:38.200Z,33.47
2022-11-22T04:17:04.837Z,35.78
2022-11-22T04:19:31.686Z,30.25
2022-11-22T04:21:58.545Z,31.33
2022-11-22T04:24:44.128Z,34.58
2022-11-22T04:27:10.774Z,35.22
2022-11-22T04:29:37.395Z,33.63
2022-11-22T04:32:22.584Z,33.67
2022-11-22T04:34:49.374Z,34.55
2022-11-22T04:37:16.833Z,32.95
2022-11-22T04:39:43.514Z,34.38
2022-11-22T04:42:28.709Z,27.58
2022-11-22T04:44:56.353Z,33.83
2022-11-22T04:47:43.877Z,23.90
2022-11-22T04:50:32.799Z,26.38
2022-11-22T04:55:26.167Z,27.92
2022-11-22T04:57:58.900Z,22.63
2022-11-22T05:00:28.518Z,26.40
2022-11-22T05:02:55.903Z,25.02
2022-11-22T05:05:23.294Z,25.60
2022-11-22T05:07:50.226Z,24.95
2022-11-22T05:10:20.007Z,28.70
2022-11-22T05:12:51.367Z,24.30
2022-11-22T05:15:18.571Z,27.17
2022-11-22T05:17:45.303Z,32.78
2022-11-22T05:20:12.095Z,26.15
2022-11-22T05:22:57.201Z,29.42
2022-11-22T05:25:25.653Z,27.48
2022-11-22T05:27:55.738Z,30.00
2022-11-22T05:30:22.681Z,31.58
2022-11-22T05:32:49.317Z,30.20
2022-11-22T05:35:16.276Z,30.33
2022-11-22T05:37:42.921Z,36.33
2022-11-22T05:40:10.544Z,33.08
2022-11-22T05:42:37.254Z,39.45
2022-11-22T05:45:04.231Z,39.63
2022-11-22T05:47:34.890Z,35.63
2022-11-22T05:50:01.827Z,35.55
2022-11-22T05:52:28.844Z,30.08
2022-11-22T05:54:55.486Z,33.20
2022-11-22T05:57:22.200Z,43.75
2022-11-22T05:59:48.815Z,35.75
2022-11-22T06:02:15.504Z,44.28
2022-11-22T06:04:42.502Z,29.63
2022-11-22T06:07:10.387Z,33.55
2022-11-22T06:09:37.562Z,29.85
2022-11-22T06:12:04.840Z,45.17
2022-11-22T06:14:31.593Z,40.42
2022-11-22T06:16:58.255Z,36.63
2022-11-22T06:19:24.923Z,49.03
2022-11-22T06:21:51.559Z,60.30
2022-11-22T06:24:18.476Z,55.85
2022-11-22T06:26:45.138Z,51.15
2022-11-22T06:29:11.879Z,53.35
2022-11-22T06:31:38.513Z,50.83
2022-11-22T06:34:05.356Z,53.88
2022-11-22T06:36:34.476Z,49.05
2022-11-22T06:39:03.343Z,50.47
2022-11-22T06:41:35.215Z,55.63
2022-11-22T06:44:06.127Z,58.47
2022-11-22T06:46:33.530Z,60.40
2022-11-22T06:49:00.387Z,59.88
2022-11-22T06:51:31.232Z,62.25
2022-11-22T06:53:58.417Z,57.20
2022-11-22T06:56:30.822Z,63.55
2022-11-22T06:59:00.923Z,54.85
2022-11-22T07:01:29.674Z,65.10
2022-11-22T07:03:58.322Z,59.25
2022-11-22T07:06:30.901Z,57.95
2022-11-22T07:08:59.264Z,63.28
2022-11-22T07:11:28.555Z,71.20
2022-11-22T07:14:00.394Z,72.13
2022-11-22T07:18:59.591Z,67.35
2022-11-22T07:21:26.839Z,68.72
2022-11-22T07:23:54.860Z,71.38
2022-11-22T07:26:23.897Z,71.60
2022-11-22T07:28:50.639Z,65.60
2022-11-22T07:31:18.064Z,68.22
2022-11-22T07:33:44.852Z,76.57
2022-11-22T07:36:17.516Z,67.07
2022-11-22T07:38:45.432Z,76.20
2022-11-22T07:41:13.696Z,80.15
2022-11-22T07:43:40.691Z,61.90
2022-11-22T07:46:16.806Z,55.97
2022-11-22T07:48:43.464Z,65.15
2022-11-22T07:51:10.097Z,69.88
2022-11-22T07:53:36.726Z,55.92
2022-11-22T07:56:04.890Z,54.75
2022-11-22T07:58:32.542Z,59.55
2022-11-22T08:01:11.451Z,58.53
2022-11-22T08:03:38.274Z,58.20
2022-11-22T08:06:07.227Z,49.25
2022-11-22T08:08:35.545Z,51.15
2022-11-22T08:11:03.080Z,53.78
2022-11-22T08:13:31.105Z,48.00
2022-11-22T08:16:05.680Z,52.30
2022-11-22T08:21:25.983Z,46.67
2022-11-22T08:23:58.178Z,53.83
2022-11-22T08:26:24.864Z,45.03
2022-11-22T08:28:52.010Z,43.65
2022-11-22T08:31:19.935Z,45.90
2022-11-22T08:33:47.622Z,45.05
2022-11-22T08:36:14.318Z,52.45
2022-11-22T08:38:41.658Z,40.08
2022-11-22T08:41:08.431Z,38.63
2022-11-22T08:43:35.091Z,39.90
2022-11-22T08:46:02.147Z,40.88
2022-11-22T08:48:30.673Z,40.40
2022-11-22T08:50:59.553Z,38.60
2022-11-22T08:53:26.761Z,38.35
2022-11-22T08:55:54.522Z,42.15
2022-11-22T08:58:22.153Z,44.60
2022-11-22T09:00:48.794Z,47.65
2022-11-22T09:03:15.460Z,45.35
2022-11-22T09:08:31.434Z,45.25
2022-11-22T09:11:07.872Z,43.28
2022-11-22T09:13:35.168Z,40.00
2022-11-22T09:16:03.667Z,41.75
2022-11-22T09:18:30.444Z,35.03
2022-11-22T09:21:01.777Z,35.03
2022-11-22T09:23:28.531Z,38.80
2022-11-22T09:26:04.835Z,39.30
2022-11-22T09:28:31.889Z,38.00
2022-11-22T09:31:03.649Z,35.22
2022-11-22T09:33:31.087Z,40.10
2022-11-22T09:36:02.735Z,47.40
2022-11-22T09:38:30.732Z,42.78
2022-11-22T09:40:59.073Z,40.00
2022-11-22T09:43:43.983Z,40.20
2022-11-22T09:46:29.005Z,39.95
2022-11-22T09:49:14.986Z,36.92
2022-11-22T09:51:53.626Z,38.80
2022-11-22T09:54:49.367Z,38.25
2022-11-22T09:59:54.736Z,37.55
2022-11-22T10:02:29.690Z,35.67
2022-11-22T10:07:31.066Z,35.50
2022-11-22T10:10:17.385Z,34.65
2022-11-22T10:13:01.388Z,35.45
2022-11-22T10:15:44.319Z,33.13
2022-11-22T10:18:39.947Z,33.20
2022-11-22T10:21:11.956Z,36.67
2022-11-22T10:23:40.949Z,37.58
2022-11-22T10:26:36.709Z,42.78
2022-11-22T10:31:40.011Z,38.50
2022-11-22T10:34:15.969Z,39.47
2022-11-22T10:37:00.207Z,38.00
2022-11-22T10:39:55.231Z,38.50
2022-11-22T10:42:33.098Z,35.45
2022-11-22T10:45:19.661Z,34.78
2022-11-22T10:48:27.963Z,33.40
2022-11-22T10:51:00.371Z,38.08
2022-11-22T10:54:08.292Z,36.00
2022-11-22T10:57:09.013Z,35.22
2022-11-22T11:00:18.511Z,38.15
2022-11-22T11:03:05.419Z,29.20
2022-11-22T11:06:22.617Z,39.45
2022-11-22T11:09:36.188Z,41.15
2022-11-22T11:11:32.604Z,37.58
2022-11-22T11:14:16.745Z,38.90
2022-11-22T11:16:44.797Z,37.75
2022-11-22T11:19:11.340Z,34.72
2022-11-22T11:21:38.065Z,32.17
2022-11-22T11:24:13.554Z,36.03
2022-11-22T11:26:41.592Z,35.00
2022-11-22T11:29:31.037Z,44.13
2022-11-22T11:32:09.642Z,40.75
2022-11-22T11:34:37.390Z,34.33
2022-11-22T11:37:05.747Z,36.67
2022-11-22T11:39:34.561Z,35.65
2022-11-22T11:42:20.947Z,38.05
2022-11-22T11:44:47.580Z,36.10
2022-11-22T11:47:34.403Z,35.13
2022-11-22T11:50:01.081Z,38.35
2022-11-22T11:52:29.711Z,38.60
2022-11-22T11:55:01.336Z,29.45
2022-11-22T11:57:31.111Z,32.00
2022-11-22T12:00:02.656Z,32.92
2022-11-22T12:02:41.798Z,32.28
2022-11-22T12:05:14.273Z,34.88
2022-11-22T12:07:46.311Z,32.20
2022-11-22T12:10:40.954Z,33.22
2022-11-22T12:13:17.982Z,35.80
2022-11-22T12:15:51.480Z,33.15
2022-11-22T12:18:48.321Z,34.03
2022-11-22T12:24:45.207Z,32.50
2022-11-22T12:27:03.983Z,31.60
2022-11-22T12:29:35.018Z,33.47
2022-11-22T12:32:19.910Z,31.45
2022-11-22T12:35:02.009Z,32.95
2022-11-22T12:37:34.358Z,30.02
2022-11-22T12:40:13.946Z,31.65
2022-11-22T12:42:47.281Z,33.30
2022-11-22T12:45:22.712Z,32.90
2022-11-22T12:47:50.788Z,34.90
2022-11-22T12:50:24.366Z,34.65
2022-11-22T12:53:00.291Z,36.22
2022-11-22T12:55:31.241Z,33.85
2022-11-22T12:58:18.314Z,34.03
2022-11-22T13:01:14.010Z,31.02
2022-11-22T13:03:55.517Z,31.33
2022-11-22T13:06:24.913Z,32.08
2022-11-22T13:09:03.757Z,30.25
2022-11-22T13:11:44.971Z,31.98
2022-11-22T13:14:20.707Z,30.52
2022-11-22T13:16:50.432Z,31.50
2022-11-22T13:19:20.313Z,32.90
2022-11-22T13:22:10.388Z,30.98
2022-11-22T13:25:24.463Z,29.08
2022-11-22T13:27:51.951Z,29.13
2022-11-22T13:30:24.539Z,30.58
2022-11-22T13:32:54.321Z,28.63
2022-11-22T13:35:36.705Z,29.73
2022-11-22T13:38:14.847Z,26.55
2022-11-22T13:40:47.129Z,29.38
2022-11-22T13:43:17.975Z,28.80
2022-11-22T13:46:00.604Z,28.33
2022-11-22T13:48:39.432Z,28.10
2022-11-22T13:51:07.068Z,27.85
2022-11-22T13:53:36.884Z,26.80
2022-11-22T13:56:09.157Z,27.73
2022-11-22T13:58:50.742Z,26.25
2022-11-22T14:01:52.436Z,26.02
2022-11-22T14:04:26.572Z,28.00
2022-11-22T14:07:20.390Z,27.23
2022-11-22T14:09:50.126Z,27.75
2022-11-22T14:12:30.054Z,27.67
2022-11-22T14:15:23.022Z,27.98
2022-11-22T14:18:14.243Z,26.83
2022-11-22T14:21:02.329Z,27.90
2022-11-22T14:23:58.413Z,28.05
2022-11-22T14:26:43.635Z,25.98
2022-11-22T14:29:48.172Z,29.85
2022-11-22T14:32:21.476Z,28.48
2022-11-22T14:35:17.545Z,28.48
2022-11-22T14:38:06.040Z,27.45
2022-11-22T14:40:40.461Z,29.98
2022-11-22T14:43:28.620Z,29.58
2022-11-22T14:46:00.464Z,27.73
2022-11-22T14:48:43.588Z,29.35
2022-11-22T14:51:32.248Z,29.45
2022-11-22T14:54:01.279Z,27.25
2022-11-22T14:56:32.012Z,28.13
2022-11-22T14:59:22.643Z,29.70
2022-11-22T15:02:23.794Z,32.15
2022-11-22T15:09:17.608Z,30.33
2022-11-22T15:09:20.085Z,30.98
2022-11-22T15:12:14.631Z,31.88
2022-11-22T15:59:25.706Z,30.58
2022-11-22T16:01:58.138Z,36.70
2022-11-22T16:04:29.827Z,32.33
2022-11-22T16:07:00.117Z,22.50
2022-11-22T16:09:33.930Z,23.27
2022-11-22T16:12:02.685Z,26.95
2022-11-22T16:14:45.822Z,24.52
2022-11-22T16:17:28.000Z,20.58
2022-11-22T16:20:25.653Z,24.13
2022-11-22T16:23:11.715Z,20.40
2022-11-22T16:25:40.626Z,21.20
2022-11-22T16:28:21.635Z,22.42
2022-11-22T16:30:48.449Z,22.95
2022-11-22T16:33:15.193Z,21.27
2022-11-22T16:35:41.797Z,21.88
2022-11-22T16:38:09.010Z,25.08
2022-11-22T16:40:42.627Z,21.42
2022-11-22T16:43:21.967Z,23.67
2022-11-22T16:45:49.200Z,23.70
2022-11-22T16:48:31.274Z,30.02
2022-11-22T16:51:06.262Z,20.75
2022-11-22T16:53:45.165Z,26.15
2022-11-22T16:56:29.114Z,20.55
2022-11-22T16:58:57.475Z,22.17
2022-11-22T17:01:26.481Z,22.88
2022-11-22T17:03:56.346Z,21.95
2022-11-22T17:06:25.105Z,23.67
2022-11-22T17:08:54.212Z,21.98
2022-11-22T17:11:30.112Z,27.38
2022-11-22T17:13:57.540Z,28.20
2022-11-22T17:16:24.189Z,28.30
2022-11-22T17:18:51.077Z,30.30
2022-11-22T17:21:30.196Z,29.25
2022-11-22T17:24:05.316Z,27.60
2022-11-22T17:26:32.592Z,25.50
2022-11-22T17:28:59.152Z,22.70
2022-11-22T17:31:27.972Z,19.60
2022-11-22T17:33:56.613Z,21.33
2022-11-22T17:36:34.733Z,20.20
2022-11-22T17:39:04.676Z,19.17
2022-11-22T17:41:32.881Z,19.33
2022-11-22T17:44:00.748Z,23.70
2022-11-22T17:46:29.630Z,20.80
2022-11-22T17:48:59.429Z,19.02
2022-11-22T17:51:30.612Z,23.05
2022-11-22T17:53:58.140Z,22.23
2022-11-22T17:56:25.874Z,20.58
2022-11-22T17:58:52.528Z,21.98
2022-11-22T18:01:21.366Z,53.53
2022-11-22T18:03:48.934Z,24.67
2022-11-22T18:06:16.944Z,30.73
2022-11-22T18:08:46.964Z,19.67
2022-11-22T18:11:15.105Z,31.23
2022-11-22T18:13:42.158Z,30.63
2022-11-22T18:16:12.060Z,18.05
2022-11-22T18:21:28.748Z,22.83
2022-11-22T18:24:00.017Z,41.90
2022-11-22T18:26:43.122Z,28.73
2022-11-22T18:29:41.713Z,17.25
2022-11-22T18:31:58.969Z,17.88
2022-11-22T18:34:26.322Z,17.17
2022-11-22T18:36:55.802Z,20.95
2022-11-22T18:39:24.507Z,18.10
2022-11-22T18:41:51.114Z,19.20
2022-11-22T18:44:17.851Z,16.27
2022-11-22T18:46:44.793Z,16.17
2022-11-22T18:49:11.384Z,15.43
2022-11-22T18:51:37.953Z,20.83
2022-11-22T18:54:04.702Z,16.92
2022-11-22T18:56:33.414Z,16.33
2022-11-22T18:59:00.033Z,18.23
2022-11-22T19:01:26.692Z,15.88
2022-11-22T19:03:53.765Z,17.25
2022-11-22T19:06:21.330Z,19.33
2022-11-22T19:08:48.325Z,17.63
2022-11-22T19:11:16.026Z,13.65
2022-11-22T19:13:44.157Z,13.70
2022-11-22T19:16:14.119Z,13.90
2022-11-22T19:18:43.069Z,14.98
2022-11-22T19:21:12.451Z,18.15
2022-11-22T19:23:39.677Z,16.25
2022-11-22T19:26:08.649Z,24.60
2022-11-22T19:28:35.406Z,16.13
2022-11-22T19:31:09.809Z,15.18
2022-11-22T19:33:37.425Z,15.00
2022-11-22T19:36:06.694Z,14.70
2022-11-22T19:38:33.365Z,15.07
2022-11-22T19:41:00.012Z,14.32
2022-11-22T19:43:26.677Z,12.95
2022-11-22T19:45:53.287Z,14.00
2022-11-22T19:48:19.902Z,14.73
2022-11-22T19:50:46.481Z,14.52
2022-11-22T19:53:13.185Z,13.77
2022-11-22T19:55:45.273Z,13.32
2022-11-22T19:58:12.258Z,14.48
2022-11-22T20:00:38.991Z,14.48
2022-11-22T20:03:05.658Z,14.60
2022-11-22T20:05:33.011Z,14.88
2022-11-22T20:07:59.782Z,14.80
2022-11-22T20:10:26.517Z,14.70
2022-11-22T20:12:53.280Z,25.15
2022-11-22T20:15:20.016Z,29.98
2022-11-22T20:17:46.699Z,15.98
2022-11-22T20:20:13.575Z,17.70
2022-11-22T20:22:40.232Z,15.75
2022-11-22T20:25:07.276Z,17.88
2022-11-22T20:27:34.094Z,16.30
2022-11-22T20:30:01.296Z,15.43
2022-11-22T20:32:31.032Z,20.30
2022-11-22T20:34:58.161Z,17.85
2022-11-22T20:37:25.022Z,20.38
2022-11-22T20:39:51.843Z,18.95
2022-11-22T20:42:35.100Z,18.25
2022-11-22T20:45:04.953Z,19.00
2022-11-22T20:47:31.878Z,17.33
2022-11-22T20:49:58.589Z,16.45
2022-11-22T20:52:25.412Z,19.00
2022-11-22T20:54:52.251Z,18.17
2022-11-22T20:57:19.073Z,21.42
2022-11-22T20:59:45.774Z,15.68
2022-11-22T21:02:12.495Z,15.55
2022-11-22T21:04:39.191Z,15.68
2022-11-22T21:07:05.971Z,14.20
2022-11-22T21:09:33.003Z,14.00
2022-11-22T21:11:59.710Z,15.10
2022-11-22T21:14:26.414Z,14.93
2022-11-22T21:16:53.191Z,15.52
2022-11-22T21:19:19.961Z,16.02
2022-11-22T21:21:46.871Z,15.95
2022-11-22T21:24:13.885Z,18.30
2022-11-22T21:26:40.736Z,18.05
2022-11-22T21:29:15.851Z,27.08
2022-11-22T21:31:43.275Z,15.88
2022-11-22T21:34:10.260Z,15.32
2022-11-22T21:36:36.998Z,16.25
2022-11-22T21:39:03.696Z,16.02
2022-11-22T21:41:45.876Z,17.70
2022-11-22T21:44:12.772Z,14.02
2022-11-22T21:46:39.657Z,15.70
2022-11-22T21:49:06.977Z,17.08
2022-11-22T21:51:33.845Z,14.23
2022-11-22T21:54:01.766Z,15.77
2022-11-22T21:56:29.362Z,13.68
2022-11-22T21:58:56.798Z,14.70
2022-11-22T22:01:24.281Z,14.65
2022-11-22T22:03:51.557Z,14.15
2022-11-22T22:06:18.904Z,14.63
2022-11-22T22:08:45.705Z,13.30
2022-11-22T22:11:12.745Z,16.67
2022-11-22T22:13:39.499Z,13.90
2022-11-22T22:16:07.244Z,14.05
2022-11-22T22:18:37.318Z,15.48
2022-11-22T22:21:07.081Z,15.02
2022-11-22T22:23:35.400Z,17.73
2022-11-22T22:26:05.638Z,13.98
2022-11-22T22:28:34.218Z,15.30
2022-11-22T22:31:09.807Z,15.07
2022-11-22T22:33:39.498Z,15.00
2022-11-22T22:36:07.749Z,15.20
2022-11-22T22:38:35.018Z,17.58
2022-11-22T22:41:03.758Z,15.85
2022-11-22T22:43:32.942Z,16.48
2022-11-22T22:46:14.755Z,19.92
2022-11-22T22:48:42.007Z,30.38
2022-11-22T22:51:11.358Z,26.25
2022-11-22T22:53:38.313Z,18.67
2022-11-22T22:56:06.704Z,16.45
2022-11-22T22:58:33.890Z,17.27
2022-11-22T23:01:17.958Z,14.15
2022-11-22T23:03:57.122Z,16.42
2022-11-22T23:06:25.609Z,16.67
2022-11-22T23:08:53.763Z,15.20
2022-11-22T23:11:43.149Z,31.02
2022-11-22T23:14:10.779Z,16.60
2022-11-22T23:16:40.758Z,31.05
2022-11-22T23:19:08.290Z,16.55
2022-11-22T23:21:35.766Z,15.23
2022-11-22T23:24:02.887Z,14.48
2022-11-22T23:26:29.572Z,13.18
2022-11-22T23:28:56.248Z,14.00
2022-11-22T23:31:23.027Z,13.73
2022-11-22T23:33:49.858Z,14.85
2022-11-22T23:36:18.860Z,14.95
2022-11-22T23:38:45.909Z,14.07
2022-11-22T23:41:20.482Z,12.45
2022-11-22T23:43:51.889Z,15.82
2022-11-22T23:46:18.855Z,14.77
2022-11-22T23:48:47.032Z,17.40
2022-11-22T23:51:14.798Z,14.80
2022-11-22T23:53:41.961Z,13.65
2022-11-22T23:56:11.575Z,14.20
2022-11-22T23:58:38.589Z,15.55
